Pineville, New York
Current Conditions -  °F | °C
As of 1:15 AM on Wednesday 22 Oct 2014 (Local Time) from KMSV Reporting Station
Overcast Overcast  
Wind Chill: 48°   Ceiling: 400
Heat Index: 48°   Visibility: 5mi
Dew Point: 48°   Wind: 3mph
Humidity: 100%   Direction: 40°NE
Pressure: 29.96"   Gusts: NA
Location:  42.1536°N, 75.1637°W
Report Text: KMSV 220515Z AUTO 04003KT 5SM OVC004 09/09 A2996 RMK AO1 P0001
Loading
Personal Weather Stations






























Interactive Weather Map
Tropical Storm Tracking
New forecast layout! Learn more

10-Day Weather Forecast

Advertisements
Track Severe Weather on mobile